sensor_id;sensor_type;location;lat;lon;timestamp;P1;durP1;ratioP1;P2;durP2;ratioP2
60718;SDS011;46567;51.660;5.824;2022-07-29T00:02:24;2.1;;;1.2;;
60718;SDS011;46567;51.660;5.824;2022-07-29T00:07:24;2.0;;;1.2;;
60718;SDS011;46567;51.660;5.824;2022-07-29T00:12:24;4.3;;;1.9;;
60718;SDS011;46567;51.660;5.824;2022-07-29T00:17:24;3.9;;;1.3;;
60718;SDS011;46567;51.660;5.824;2022-07-29T00:22:24;3.3;;;1.0;;
60718;SDS011;46567;51.660;5.824;2022-07-29T00:27:24;1.7;;;1.2;;
60718;SDS011;46567;51.660;5.824;2022-07-29T00:32:24;2.7;;;1.3;;
60718;SDS011;46567;51.660;5.824;2022-07-29T00:37:24;2.1;;;1.4;;
60718;SDS011;46567;51.660;5.824;2022-07-29T00:42:24;3.2;;;1.1;;
60718;SDS011;46567;51.660;5.824;2022-07-29T00:47:24;3.1;;;1.4;;
60718;SDS011;46567;51.660;5.824;2022-07-29T00:52:24;3.5;;;1.3;;
60718;SDS011;46567;51.660;5.824;2022-07-29T00:57:24;1.5;;;1.1;;
60718;SDS011;46567;51.660;5.824;2022-07-29T01:02:24;4.5;;;1.3;;
60718;SDS011;46567;51.660;5.824;2022-07-29T01:07:24;3.1;;;1.5;;
60718;SDS011;46567;51.660;5.824;2022-07-29T01:12:24;2.4;;;1.3;;
60718;SDS011;46567;51.660;5.824;2022-07-29T01:17:27;3.2;;;1.4;;
60718;SDS011;46567;51.660;5.824;2022-07-29T01:23:20;1.7;;;1.5;;
60718;SDS011;46567;51.660;5.824;2022-07-29T01:29:12;4.0;;;1.8;;
60718;SDS011;46567;51.660;5.824;2022-07-29T01:32:29;2.6;;;1.7;;
60718;SDS011;46567;51.660;5.824;2022-07-29T01:37:26;2.9;;;1.9;;
60718;SDS011;46567;51.660;5.824;2022-07-29T01:42:35;4.6;;;2.1;;
60718;SDS011;46567;51.660;5.824;2022-07-29T01:47:26;4.3;;;1.9;;
60718;SDS011;46567;51.660;5.824;2022-07-29T01:52:31;5.6;;;1.9;;
60718;SDS011;46567;51.660;5.824;2022-07-29T01:57:25;4.2;;;1.8;;
60718;SDS011;46567;51.660;5.824;2022-07-29T02:02:24;4.6;;;1.8;;
60718;SDS011;46567;51.660;5.824;2022-07-29T02:07:24;3.6;;;2.0;;
60718;SDS011;46567;51.660;5.824;2022-07-29T02:12:24;2.5;;;1.9;;
60718;SDS011;46567;51.660;5.824;2022-07-29T02:17:25;6.9;;;2.5;;
60718;SDS011;46567;51.660;5.824;2022-07-29T02:22:24;5.1;;;2.6;;
60718;SDS011;46567;51.660;5.824;2022-07-29T02:27:24;3.9;;;2.4;;
60718;SDS011;46567;51.660;5.824;2022-07-29T02:32:25;4.0;;;2.2;;
60718;SDS011;46567;51.660;5.824;2022-07-29T02:37:24;3.2;;;2.4;;
60718;SDS011;46567;51.660;5.824;2022-07-29T02:42:28;3.9;;;2.4;;
60718;SDS011;46567;51.660;5.824;2022-07-29T02:47:25;2.3;;;2.1;;
60718;SDS011;46567;51.660;5.824;2022-07-29T02:52:36;4.2;;;2.4;;
60718;SDS011;46567;51.660;5.824;2022-07-29T02:57:28;3.2;;;2.2;;
60718;SDS011;46567;51.660;5.824;2022-07-29T03:02:24;3.3;;;2.1;;
60718;SDS011;46567;51.660;5.824;2022-07-29T03:07:24;2.5;;;1.8;;
60718;SDS011;46567;51.660;5.824;2022-07-29T03:12:24;5.4;;;2.4;;
60718;SDS011;46567;51.660;5.824;2022-07-29T03:17:24;3.5;;;2.1;;
60718;SDS011;46567;51.660;5.824;2022-07-29T03:22:24;2.9;;;2.2;;
60718;SDS011;46567;51.660;5.824;2022-07-29T03:27:24;3.4;;;2.3;;
60718;SDS011;46567;51.660;5.824;2022-07-29T03:32:24;3.0;;;2.1;;
60718;SDS011;46567;51.660;5.824;2022-07-29T03:37:24;2.3;;;2.0;;
60718;SDS011;46567;51.660;5.824;2022-07-29T03:42:24;3.2;;;2.7;;
60718;SDS011;46567;51.660;5.824;2022-07-29T03:47:24;2.7;;;2.4;;
60718;SDS011;46567;51.660;5.824;2022-07-29T03:52:24;4.1;;;2.3;;
60718;SDS011;46567;51.660;5.824;2022-07-29T03:57:24;4.2;;;2.7;;
60718;SDS011;46567;51.660;5.824;2022-07-29T04:02:24;4.9;;;3.0;;
60718;SDS011;46567;51.660;5.824;2022-07-29T04:07:24;4.9;;;2.6;;
60718;SDS011;46567;51.660;5.824;2022-07-29T04:12:24;2.9;;;2.7;;
60718;SDS011;46567;51.660;5.824;2022-07-29T04:17:24;3.9;;;2.8;;
60718;SDS011;46567;51.660;5.824;2022-07-29T04:22:24;4.8;;;2.9;;
60718;SDS011;46567;51.660;5.824;2022-07-29T04:27:24;5.3;;;3.2;;
60718;SDS011;46567;51.660;5.824;2022-07-29T04:32:24;6.2;;;3.5;;
60718;SDS011;46567;51.660;5.824;2022-07-29T04:37:24;4.2;;;3.2;;
60718;SDS011;46567;51.660;5.824;2022-07-29T04:42:24;6.3;;;3.7;;
60718;SDS011;46567;51.660;5.824;2022-07-29T04:47:24;6.4;;;3.6;;
60718;SDS011;46567;51.660;5.824;2022-07-29T04:52:24;5.9;;;3.5;;
60718;SDS011;46567;51.660;5.824;2022-07-29T04:57:24;4.5;;;3.6;;
60718;SDS011;46567;51.660;5.824;2022-07-29T05:02:24;4.4;;;3.8;;
60718;SDS011;46567;51.660;5.824;2022-07-29T05:07:24;6.6;;;3.8;;
60718;SDS011;46567;51.660;5.824;2022-07-29T05:12:24;6.4;;;3.9;;
60718;SDS011;46567;51.660;5.824;2022-07-29T05:17:24;4.9;;;3.8;;
60718;SDS011;46567;51.660;5.824;2022-07-29T05:22:24;5.3;;;3.5;;
60718;SDS011;46567;51.660;5.824;2022-07-29T05:27:24;5.7;;;3.5;;
60718;SDS011;46567;51.660;5.824;2022-07-29T05:32:24;5.0;;;3.5;;
60718;SDS011;46567;51.660;5.824;2022-07-29T05:37:24;5.2;;;3.7;;
60718;SDS011;46567;51.660;5.824;2022-07-29T05:42:24;7.6;;;3.7;;
60718;SDS011;46567;51.660;5.824;2022-07-29T05:47:24;6.0;;;4.0;;
60718;SDS011;46567;51.660;5.824;2022-07-29T05:52:24;4.2;;;3.5;;
60718;SDS011;46567;51.660;5.824;2022-07-29T05:57:24;6.7;;;3.9;;
60718;SDS011;46567;51.660;5.824;2022-07-29T06:02:24;4.9;;;3.5;;
60718;SDS011;46567;51.660;5.824;2022-07-29T06:07:24;5.8;;;4.1;;
60718;SDS011;46567;51.660;5.824;2022-07-29T06:12:24;5.7;;;3.7;;
60718;SDS011;46567;51.660;5.824;2022-07-29T06:17:24;4.4;;;3.7;;
60718;SDS011;46567;51.660;5.824;2022-07-29T06:22:24;6.5;;;4.1;;
60718;SDS011;46567;51.660;5.824;2022-07-29T06:27:24;6.5;;;4.4;;
60718;SDS011;46567;51.660;5.824;2022-07-29T06:32:24;5.0;;;3.2;;
60718;SDS011;46567;51.660;5.824;2022-07-29T06:37:24;4.8;;;3.9;;
60718;SDS011;46567;51.660;5.824;2022-07-29T06:42:24;6.7;;;3.8;;
60718;SDS011;46567;51.660;5.824;2022-07-29T06:47:24;4.9;;;3.6;;
60718;SDS011;46567;51.660;5.824;2022-07-29T06:52:24;5.3;;;3.6;;
60718;SDS011;46567;51.660;5.824;2022-07-29T06:57:24;5.2;;;3.6;;
60718;SDS011;46567;51.660;5.824;2022-07-29T07:02:24;4.9;;;3.5;;
60718;SDS011;46567;51.660;5.824;2022-07-29T07:07:24;4.6;;;3.5;;
60718;SDS011;46567;51.660;5.824;2022-07-29T07:12:24;6.1;;;3.9;;
60718;SDS011;46567;51.660;5.824;2022-07-29T07:17:24;5.5;;;3.9;;
60718;SDS011;46567;51.660;5.824;2022-07-29T07:22:24;6.0;;;4.1;;
60718;SDS011;46567;51.660;5.824;2022-07-29T07:27:24;4.2;;;3.8;;
60718;SDS011;46567;51.660;5.824;2022-07-29T07:32:24;5.3;;;3.7;;
60718;SDS011;46567;51.660;5.824;2022-07-29T07:37:24;6.1;;;3.8;;
60718;SDS011;46567;51.660;5.824;2022-07-29T07:42:24;6.1;;;3.8;;
60718;SDS011;46567;51.660;5.824;2022-07-29T07:47:24;7.8;;;3.6;;
60718;SDS011;46567;51.660;5.824;2022-07-29T07:52:24;4.5;;;3.6;;
60718;SDS011;46567;51.660;5.824;2022-07-29T07:57:24;4.8;;;3.6;;
60718;SDS011;46567;51.660;5.824;2022-07-29T08:02:24;5.3;;;3.3;;
60718;SDS011;46567;51.660;5.824;2022-07-29T08:07:24;6.2;;;3.6;;
60718;SDS011;46567;51.660;5.824;2022-07-29T08:12:24;5.3;;;3.4;;
60718;SDS011;46567;51.660;5.824;2022-07-29T08:17:24;5.2;;;3.2;;
60718;SDS011;46567;51.660;5.824;2022-07-29T08:22:24;6.4;;;3.5;;
60718;SDS011;46567;51.660;5.824;2022-07-29T08:27:24;5.5;;;3.5;;
60718;SDS011;46567;51.660;5.824;2022-07-29T08:32:24;4.6;;;3.8;;
60718;SDS011;46567;51.660;5.824;2022-07-29T08:37:24;5.4;;;3.1;;
60718;SDS011;46567;51.660;5.824;2022-07-29T08:42:24;5.3;;;3.9;;
60718;SDS011;46567;51.660;5.824;2022-07-29T08:47:24;7.0;;;3.6;;
60718;SDS011;46567;51.660;5.824;2022-07-29T08:52:30;4.9;;;3.4;;
60718;SDS011;46567;51.660;5.824;2022-07-29T08:57:24;6.7;;;3.5;;
60718;SDS011;46567;51.660;5.824;2022-07-29T09:02:24;7.6;;;3.7;;
60718;SDS011;46567;51.660;5.824;2022-07-29T09:07:24;3.6;;;2.9;;
60718;SDS011;46567;51.660;5.824;2022-07-29T09:12:24;5.2;;;3.2;;
60718;SDS011;46567;51.660;5.824;2022-07-29T09:17:43;7.0;;;3.3;;
60718;SDS011;46567;51.660;5.824;2022-07-29T09:22:28;4.1;;;3.0;;
60718;SDS011;46567;51.660;5.824;2022-07-29T09:27:24;6.3;;;4.0;;
60718;SDS011;46567;51.660;5.824;2022-07-29T09:32:24;5.9;;;3.7;;
60718;SDS011;46567;51.660;5.824;2022-07-29T09:37:27;6.0;;;3.5;;
60718;SDS011;46567;51.660;5.824;2022-07-29T09:42:30;7.5;;;3.5;;
60718;SDS011;46567;51.660;5.824;2022-07-29T09:47:27;7.4;;;4.0;;
60718;SDS011;46567;51.660;5.824;2022-07-29T09:52:24;4.3;;;3.3;;
60718;SDS011;46567;51.660;5.824;2022-07-29T10:07:24;5.2;;;3.1;;
60718;SDS011;46567;51.660;5.824;2022-07-29T10:12:24;4.7;;;2.7;;
60718;SDS011;46567;51.660;5.824;2022-07-29T10:17:24;4.1;;;3.1;;
60718;SDS011;46567;51.660;5.824;2022-07-29T10:22:24;7.1;;;3.2;;
60718;SDS011;46567;51.660;5.824;2022-07-29T10:27:24;4.6;;;3.1;;
60718;SDS011;46567;51.660;5.824;2022-07-29T10:32:36;3.9;;;2.6;;
60718;SDS011;46567;51.660;5.824;2022-07-29T10:38:42;5.1;;;3.0;;
60718;SDS011;46567;51.660;5.824;2022-07-29T10:42:40;5.9;;;3.0;;
60718;SDS011;46567;51.660;5.824;2022-07-29T10:47:24;3.4;;;2.4;;
60718;SDS011;46567;51.660;5.824;2022-07-29T10:52:24;3.8;;;2.2;;
60718;SDS011;46567;51.660;5.824;2022-07-29T10:57:24;2.7;;;2.3;;
60718;SDS011;46567;51.660;5.824;2022-07-29T11:02:44;5.4;;;2.3;;
60718;SDS011;46567;51.660;5.824;2022-07-29T11:07:24;4.8;;;2.7;;
60718;SDS011;46567;51.660;5.824;2022-07-29T11:12:45;3.4;;;2.4;;
60718;SDS011;46567;51.660;5.824;2022-07-29T11:17:24;3.8;;;2.9;;
60718;SDS011;46567;51.660;5.824;2022-07-29T11:22:33;4.6;;;2.8;;
60718;SDS011;46567;51.660;5.824;2022-07-29T11:27:30;4.8;;;2.8;;
60718;SDS011;46567;51.660;5.824;2022-07-29T11:32:24;4.2;;;2.9;;
60718;SDS011;46567;51.660;5.824;2022-07-29T11:37:24;3.6;;;2.6;;
60718;SDS011;46567;51.660;5.824;2022-07-29T11:42:39;4.2;;;2.4;;
60718;SDS011;46567;51.660;5.824;2022-07-29T11:47:24;4.2;;;2.5;;
60718;SDS011;46567;51.660;5.824;2022-07-29T11:52:32;5.4;;;3.1;;
60718;SDS011;46567;51.660;5.824;2022-07-29T11:57:24;4.8;;;2.3;;
60718;SDS011;46567;51.660;5.824;2022-07-29T12:02:24;3.1;;;1.9;;
60718;SDS011;46567;51.660;5.824;2022-07-29T12:07:26;2.8;;;1.9;;
60718;SDS011;46567;51.660;5.824;2022-07-29T12:12:24;3.8;;;1.8;;
60718;SDS011;46567;51.660;5.824;2022-07-29T12:17:27;8.3;;;2.2;;
60718;SDS011;46567;51.660;5.824;2022-07-29T12:22:26;4.7;;;2.5;;
60718;SDS011;46567;51.660;5.824;2022-07-29T12:27:24;4.2;;;2.1;;
60718;SDS011;46567;51.660;5.824;2022-07-29T12:32:24;3.9;;;2.3;;
60718;SDS011;46567;51.660;5.824;2022-07-29T12:37:24;5.8;;;2.3;;
60718;SDS011;46567;51.660;5.824;2022-07-29T12:42:24;3.3;;;2.4;;
60718;SDS011;46567;51.660;5.824;2022-07-29T12:47:24;3.6;;;2.5;;
60718;SDS011;46567;51.660;5.824;2022-07-29T12:52:25;7.0;;;2.6;;
60718;SDS011;46567;51.660;5.824;2022-07-29T12:57:24;3.6;;;2.0;;
60718;SDS011;46567;51.660;5.824;2022-07-29T13:02:24;5.0;;;2.8;;
60718;SDS011;46567;51.660;5.824;2022-07-29T13:07:24;3.6;;;2.5;;
60718;SDS011;46567;51.660;5.824;2022-07-29T13:12:24;2.7;;;2.0;;
60718;SDS011;46567;51.660;5.824;2022-07-29T13:17:24;4.1;;;2.2;;
60718;SDS011;46567;51.660;5.824;2022-07-29T13:22:24;2.7;;;1.8;;
60718;SDS011;46567;51.660;5.824;2022-07-29T13:27:25;1.9;;;1.5;;
60718;SDS011;46567;51.660;5.824;2022-07-29T13:32:24;2.5;;;1.4;;
60718;SDS011;46567;51.660;5.824;2022-07-29T13:37:24;3.6;;;2.0;;
60718;SDS011;46567;51.660;5.824;2022-07-29T13:42:24;3.3;;;1.9;;
60718;SDS011;46567;51.660;5.824;2022-07-29T13:47:24;3.7;;;2.1;;
60718;SDS011;46567;51.660;5.824;2022-07-29T13:52:24;2.3;;;1.5;;
60718;SDS011;46567;51.660;5.824;2022-07-29T13:57:24;3.4;;;1.5;;
60718;SDS011;46567;51.660;5.824;2022-07-29T14:02:24;3.1;;;2.1;;
60718;SDS011;46567;51.660;5.824;2022-07-29T14:07:24;4.6;;;1.8;;
60718;SDS011;46567;51.660;5.824;2022-07-29T14:12:24;2.3;;;1.4;;
60718;SDS011;46567;51.660;5.824;2022-07-29T14:17:24;4.4;;;1.5;;
60718;SDS011;46567;51.660;5.824;2022-07-29T14:22:24;3.5;;;1.6;;
60718;SDS011;46567;51.660;5.824;2022-07-29T14:27:24;3.8;;;1.8;;
60718;SDS011;46567;51.660;5.824;2022-07-29T14:32:24;3.0;;;1.5;;
60718;SDS011;46567;51.660;5.824;2022-07-29T14:37:24;2.4;;;1.7;;
60718;SDS011;46567;51.660;5.824;2022-07-29T14:42:24;2.2;;;1.7;;
60718;SDS011;46567;51.660;5.824;2022-07-29T14:52:24;1.9;;;1.5;;
60718;SDS011;46567;51.660;5.824;2022-07-29T14:57:24;2.1;;;1.6;;
60718;SDS011;46567;51.660;5.824;2022-07-29T15:02:24;2.9;;;1.8;;
60718;SDS011;46567;51.660;5.824;2022-07-29T15:07:24;2.5;;;1.5;;
60718;SDS011;46567;51.660;5.824;2022-07-29T15:12:24;3.7;;;1.8;;
60718;SDS011;46567;51.660;5.824;2022-07-29T15:17:24;3.4;;;1.8;;
60718;SDS011;46567;51.660;5.824;2022-07-29T15:22:24;2.3;;;1.5;;
60718;SDS011;46567;51.660;5.824;2022-07-29T15:27:24;3.0;;;1.9;;
60718;SDS011;46567;51.660;5.824;2022-07-29T15:32:24;2.4;;;1.5;;
60718;SDS011;46567;51.660;5.824;2022-07-29T15:37:24;4.7;;;1.8;;
60718;SDS011;46567;51.660;5.824;2022-07-29T15:42:24;2.4;;;1.7;;
60718;SDS011;46567;51.660;5.824;2022-07-29T15:47:24;6.2;;;2.2;;
60718;SDS011;46567;51.660;5.824;2022-07-29T15:52:24;4.1;;;2.1;;
60718;SDS011;46567;51.660;5.824;2022-07-29T15:57:24;2.8;;;1.8;;
60718;SDS011;46567;51.660;5.824;2022-07-29T16:02:24;2.6;;;1.7;;
60718;SDS011;46567;51.660;5.824;2022-07-29T16:07:24;5.4;;;2.1;;
60718;SDS011;46567;51.660;5.824;2022-07-29T16:12:24;3.9;;;2.2;;
60718;SDS011;46567;51.660;5.824;2022-07-29T16:17:24;4.6;;;2.1;;
60718;SDS011;46567;51.660;5.824;2022-07-29T16:22:24;4.4;;;1.9;;
60718;SDS011;46567;51.660;5.824;2022-07-29T16:27:24;2.1;;;1.9;;
60718;SDS011;46567;51.660;5.824;2022-07-29T16:32:24;4.4;;;1.9;;
60718;SDS011;46567;51.660;5.824;2022-07-29T16:37:24;2.3;;;1.8;;
60718;SDS011;46567;51.660;5.824;2022-07-29T16:42:24;3.3;;;1.7;;
60718;SDS011;46567;51.660;5.824;2022-07-29T16:47:24;1.8;;;1.5;;
60718;SDS011;46567;51.660;5.824;2022-07-29T16:52:24;2.1;;;1.7;;
60718;SDS011;46567;51.660;5.824;2022-07-29T16:57:24;5.6;;;1.6;;
60718;SDS011;46567;51.660;5.824;2022-07-29T17:02:24;4.6;;;2.2;;
60718;SDS011;46567;51.660;5.824;2022-07-29T17:07:24;3.6;;;2.1;;
60718;SDS011;46567;51.660;5.824;2022-07-29T17:12:24;2.6;;;2.1;;
60718;SDS011;46567;51.660;5.824;2022-07-29T17:17:24;4.0;;;2.4;;
60718;SDS011;46567;51.660;5.824;2022-07-29T17:22:24;2.5;;;1.9;;
60718;SDS011;46567;51.660;5.824;2022-07-29T17:27:24;3.5;;;1.7;;
60718;SDS011;46567;51.660;5.824;2022-07-29T17:32:24;5.1;;;1.9;;
60718;SDS011;46567;51.660;5.824;2022-07-29T17:37:24;2.9;;;1.9;;
60718;SDS011;46567;51.660;5.824;2022-07-29T17:42:24;6.3;;;2.1;;
60718;SDS011;46567;51.660;5.824;2022-07-29T17:47:24;2.3;;;1.6;;
60718;SDS011;46567;51.660;5.824;2022-07-29T17:52:24;4.5;;;1.9;;
60718;SDS011;46567;51.660;5.824;2022-07-29T17:57:24;3.9;;;1.8;;
60718;SDS011;46567;51.660;5.824;2022-07-29T18:02:24;4.5;;;2.2;;
60718;SDS011;46567;51.660;5.824;2022-07-29T18:07:24;7.4;;;2.2;;
60718;SDS011;46567;51.660;5.824;2022-07-29T18:17:24;3.7;;;2.4;;
60718;SDS011;46567;51.660;5.824;2022-07-29T18:22:24;4.4;;;1.9;;
60718;SDS011;46567;51.660;5.824;2022-07-29T18:27:24;3.4;;;2.1;;
60718;SDS011;46567;51.660;5.824;2022-07-29T18:32:24;3.5;;;2.0;;
60718;SDS011;46567;51.660;5.824;2022-07-29T18:37:24;2.5;;;1.8;;
60718;SDS011;46567;51.660;5.824;2022-07-29T18:42:24;3.4;;;2.1;;
60718;SDS011;46567;51.660;5.824;2022-07-29T18:47:24;5.1;;;2.4;;
60718;SDS011;46567;51.660;5.824;2022-07-29T18:52:24;3.1;;;2.4;;
60718;SDS011;46567;51.660;5.824;2022-07-29T18:57:24;3.6;;;2.4;;
60718;SDS011;46567;51.660;5.824;2022-07-29T19:02:24;5.7;;;2.7;;
60718;SDS011;46567;51.660;5.824;2022-07-29T19:07:24;6.2;;;3.0;;
60718;SDS011;46567;51.660;5.824;2022-07-29T19:12:24;6.6;;;3.1;;
60718;SDS011;46567;51.660;5.824;2022-07-29T19:17:24;4.9;;;3.2;;
60718;SDS011;46567;51.660;5.824;2022-07-29T19:22:24;5.1;;;2.7;;
60718;SDS011;46567;51.660;5.824;2022-07-29T19:27:24;3.8;;;2.5;;
60718;SDS011;46567;51.660;5.824;2022-07-29T19:32:24;3.6;;;2.1;;
60718;SDS011;46567;51.660;5.824;2022-07-29T19:37:24;3.9;;;2.2;;
60718;SDS011;46567;51.660;5.824;2022-07-29T19:42:24;5.0;;;2.4;;
60718;SDS011;46567;51.660;5.824;2022-07-29T19:47:24;4.2;;;2.3;;
60718;SDS011;46567;51.660;5.824;2022-07-29T19:52:24;2.5;;;2.0;;
60718;SDS011;46567;51.660;5.824;2022-07-29T19:57:24;3.3;;;2.1;;
60718;SDS011;46567;51.660;5.824;2022-07-29T20:02:24;4.0;;;2.2;;
60718;SDS011;46567;51.660;5.824;2022-07-29T20:07:24;2.8;;;1.8;;
60718;SDS011;46567;51.660;5.824;2022-07-29T20:12:24;4.5;;;2.2;;
60718;SDS011;46567;51.660;5.824;2022-07-29T20:17:24;4.0;;;2.4;;
60718;SDS011;46567;51.660;5.824;2022-07-29T20:22:24;3.2;;;2.2;;
60718;SDS011;46567;51.660;5.824;2022-07-29T20:27:24;3.3;;;2.2;;
60718;SDS011;46567;51.660;5.824;2022-07-29T20:32:24;3.8;;;2.5;;
60718;SDS011;46567;51.660;5.824;2022-07-29T20:37:24;4.0;;;2.5;;
60718;SDS011;46567;51.660;5.824;2022-07-29T20:42:24;5.4;;;2.2;;
60718;SDS011;46567;51.660;5.824;2022-07-29T20:47:24;8.5;;;2.5;;
60718;SDS011;46567;51.660;5.824;2022-07-29T20:52:24;2.9;;;2.4;;
60718;SDS011;46567;51.660;5.824;2022-07-29T20:57:24;4.5;;;2.8;;
60718;SDS011;46567;51.660;5.824;2022-07-29T21:02:24;2.9;;;2.5;;
60718;SDS011;46567;51.660;5.824;2022-07-29T21:07:24;6.5;;;2.6;;
60718;SDS011;46567;51.660;5.824;2022-07-29T21:12:24;6.6;;;2.4;;
60718;SDS011;46567;51.660;5.824;2022-07-29T21:17:24;3.0;;;2.3;;
60718;SDS011;46567;51.660;5.824;2022-07-29T21:22:24;3.3;;;2.3;;
60718;SDS011;46567;51.660;5.824;2022-07-29T21:27:24;4.1;;;2.5;;
60718;SDS011;46567;51.660;5.824;2022-07-29T21:32:24;7.3;;;3.1;;
60718;SDS011;46567;51.660;5.824;2022-07-29T21:37:24;6.4;;;2.9;;
60718;SDS011;46567;51.660;5.824;2022-07-29T21:42:24;5.6;;;3.1;;
60718;SDS011;46567;51.660;5.824;2022-07-29T21:47:24;4.1;;;2.7;;
60718;SDS011;46567;51.660;5.824;2022-07-29T21:52:24;5.1;;;2.8;;
60718;SDS011;46567;51.660;5.824;2022-07-29T21:57:24;6.1;;;3.8;;
60718;SDS011;46567;51.660;5.824;2022-07-29T22:02:24;7.1;;;3.6;;
60718;SDS011;46567;51.660;5.824;2022-07-29T22:07:24;5.1;;;3.1;;
60718;SDS011;46567;51.660;5.824;2022-07-29T22:12:24;7.7;;;3.8;;
60718;SDS011;46567;51.660;5.824;2022-07-29T22:17:24;4.9;;;3.4;;
60718;SDS011;46567;51.660;5.824;2022-07-29T22:22:24;3.9;;;3.1;;
60718;SDS011;46567;51.660;5.824;2022-07-29T22:27:24;4.6;;;3.3;;
60718;SDS011;46567;51.660;5.824;2022-07-29T22:32:24;6.0;;;3.4;;
60718;SDS011;46567;51.660;5.824;2022-07-29T22:37:24;4.7;;;3.2;;
60718;SDS011;46567;51.660;5.824;2022-07-29T22:42:24;5.2;;;3.2;;
60718;SDS011;46567;51.660;5.824;2022-07-29T22:47:24;6.2;;;3.6;;
60718;SDS011;46567;51.660;5.824;2022-07-29T22:52:24;5.7;;;3.9;;
60718;SDS011;46567;51.660;5.824;2022-07-29T22:57:24;6.2;;;3.6;;
60718;SDS011;46567;51.660;5.824;2022-07-29T23:02:24;6.0;;;3.8;;
60718;SDS011;46567;51.660;5.824;2022-07-29T23:07:24;6.3;;;3.7;;
60718;SDS011;46567;51.660;5.824;2022-07-29T23:12:24;5.9;;;4.4;;
60718;SDS011;46567;51.660;5.824;2022-07-29T23:17:24;8.1;;;4.8;;
60718;SDS011;46567;51.660;5.824;2022-07-29T23:22:24;7.7;;;4.9;;
60718;SDS011;46567;51.660;5.824;2022-07-29T23:27:24;7.5;;;4.7;;
60718;SDS011;46567;51.660;5.824;2022-07-29T23:32:24;7.2;;;4.9;;
60718;SDS011;46567;51.660;5.824;2022-07-29T23:37:24;5.9;;;4.7;;
60718;SDS011;46567;51.660;5.824;2022-07-29T23:42:24;6.6;;;4.9;;
60718;SDS011;46567;51.660;5.824;2022-07-29T23:47:24;8.4;;;5.1;;
60718;SDS011;46567;51.660;5.824;2022-07-29T23:52:24;6.3;;;5.1;;
60718;SDS011;46567;51.660;5.824;2022-07-29T23:57:24;7.3;;;5.3;;
